createdAt,value
2019-05-01T00:00:16.058Z,62.14
2019-05-01T00:01:09.387Z,60.01
2019-05-01T00:02:09.421Z,61.63
2019-05-01T00:03:09.451Z,61.63
2019-05-01T00:04:09.485Z,62.59
2019-05-01T00:05:09.517Z,63.64
2019-05-01T00:06:09.549Z,63.83
2019-05-01T00:07:09.582Z,63.93
2019-05-01T00:08:09.614Z,63.07
2019-05-01T00:09:09.647Z,63.07
2019-05-01T00:10:09.679Z,62.11
2019-05-01T00:11:09.712Z,62.87
2019-05-01T00:12:09.745Z,63.73
2019-05-01T00:13:09.777Z,63.73
2019-05-01T00:14:09.811Z,64.50
2019-05-01T00:15:09.842Z,65.26
2019-05-01T00:16:09.874Z,64.22
2019-05-01T00:17:09.907Z,62.21
2019-05-01T00:18:09.939Z,63.93
2019-05-01T00:19:09.973Z,64.78
2019-05-01T00:20:10.006Z,64.50
2019-05-01T00:21:10.039Z,64.50
2019-05-01T00:22:10.070Z,64.69
2019-05-01T00:23:10.101Z,64.59
2019-05-01T00:24:10.136Z,64.59
2019-05-01T00:25:10.166Z,64.59
2019-05-01T00:26:10.199Z,64.31
2019-05-01T00:27:10.238Z,64.88
2019-05-01T00:28:10.267Z,64.69
2019-05-01T00:29:10.299Z,65.26
2019-05-01T00:30:10.330Z,65.84
2019-05-01T00:31:10.362Z,65.84
2019-05-01T00:32:10.395Z,65.45
2019-05-01T00:33:10.427Z,65.84
2019-05-01T00:34:10.462Z,65.55
2019-05-01T00:35:10.494Z,65.74
2019-05-01T00:36:10.527Z,65.26
2019-05-01T00:37:10.557Z,65.07
2019-05-01T00:38:10.590Z,64.98
2019-05-01T00:39:10.622Z,65.36
2019-05-01T00:40:10.673Z,65.17
2019-05-01T00:41:10.686Z,66.70
2019-05-01T00:42:10.720Z,67.36
2019-05-01T00:43:10.756Z,67.46
2019-05-01T00:44:10.788Z,67.75
2019-05-01T00:45:10.816Z,67.94
2019-05-01T00:46:10.849Z,68.41
2019-05-01T00:47:10.881Z,68.04
2019-05-01T00:48:10.913Z,68.04
2019-05-01T00:49:10.944Z,68.41
2019-05-01T00:50:10.978Z,68.04
2019-05-01T00:51:11.011Z,67.84
2019-05-01T00:52:11.047Z,67.75
2019-05-01T00:53:11.074Z,68.80
2019-05-01T00:54:11.110Z,68.41
2019-05-01T00:55:11.141Z,67.36
2019-05-01T00:56:11.172Z,68.90
2019-05-01T00:57:11.204Z,69.47
2019-05-01T00:58:11.237Z,68.41
2019-05-01T00:59:11.269Z,67.75
2019-05-01T01:00:11.302Z,67.65
2019-05-01T01:01:11.335Z,67.27
2019-05-01T01:02:11.367Z,67.18
2019-05-01T01:03:11.399Z,68.51
2019-05-01T01:04:11.458Z,68.23
2019-05-01T01:05:11.464Z,68.80
2019-05-01T01:06:11.498Z,68.90
2019-05-01T01:07:11.530Z,69.27
2019-05-01T01:08:11.561Z,69.18
2019-05-01T01:09:11.592Z,68.80
2019-05-01T01:10:11.624Z,69.09
2019-05-01T01:11:11.658Z,69.47
2019-05-01T01:12:11.695Z,69.47
2019-05-01T01:13:35.904Z,69.95
2019-05-01T01:14:11.759Z,70.04
2019-05-01T01:15:11.787Z,69.47
2019-05-01T01:16:11.825Z,70.14
2019-05-01T01:17:11.854Z,69.76
2019-05-01T01:18:11.887Z,69.37
2019-05-01T01:19:11.917Z,69.09
2019-05-01T01:20:11.954Z,70.33
2019-05-01T01:21:11.981Z,70.52
2019-05-01T01:22:12.014Z,70.90
2019-05-01T01:23:12.049Z,70.42
2019-05-01T01:24:12.079Z,70.14
2019-05-01T01:25:12.110Z,70.42
2019-05-01T01:26:12.144Z,70.61
2019-05-01T01:27:12.176Z,69.95
2019-05-01T01:28:12.209Z,70.04
2019-05-01T01:29:12.240Z,70.04
2019-05-01T01:30:12.274Z,70.14
2019-05-01T01:31:12.307Z,69.95
2019-05-01T01:32:12.337Z,70.52
2019-05-01T01:33:12.369Z,70.61
2019-05-01T01:34:12.407Z,70.14
2019-05-01T01:35:12.436Z,70.71
2019-05-01T01:36:12.467Z,70.42
2019-05-01T01:37:12.503Z,70.23
2019-05-01T01:38:12.531Z,70.33
2019-05-01T01:39:12.583Z,70.61
2019-05-01T01:40:12.597Z,70.71
2019-05-01T01:41:12.629Z,70.71
2019-05-01T01:42:12.660Z,70.52
2019-05-01T01:43:12.692Z,70.04
2019-05-01T01:44:12.726Z,70.71
2019-05-01T01:45:12.757Z,70.14
2019-05-01T01:46:12.790Z,71.00
2019-05-01T01:47:12.823Z,70.90
2019-05-01T01:48:12.855Z,70.52
2019-05-01T01:49:12.888Z,71.28
2019-05-01T01:50:12.920Z,70.52
2019-05-01T01:51:12.953Z,70.42
2019-05-01T01:52:12.985Z,70.81
2019-05-01T01:53:13.015Z,70.52
2019-05-01T01:54:13.050Z,70.90
2019-05-01T01:55:13.086Z,71.09
2019-05-01T01:56:13.114Z,71.19
2019-05-01T01:57:13.147Z,70.71
2019-05-01T01:58:13.179Z,71.09
2019-05-01T01:59:13.211Z,71.09
2019-05-01T02:00:13.244Z,70.61
2019-05-01T02:01:13.279Z,70.71
2019-05-01T02:02:13.309Z,71.47
2019-05-01T02:03:13.345Z,71.67
2019-05-01T02:04:13.373Z,71.76
2019-05-01T02:05:13.406Z,71.67
2019-05-01T02:06:13.438Z,71.86
2019-05-01T02:07:13.471Z,71.76
2019-05-01T02:08:13.502Z,71.76
2019-05-01T02:09:13.535Z,72.14
2019-05-01T02:10:13.639Z,71.57
2019-05-01T02:11:13.601Z,72.53
2019-05-01T02:12:13.631Z,72.43
2019-05-01T02:13:13.668Z,71.38
2019-05-01T02:14:13.719Z,72.05
2019-05-01T02:15:13.732Z,72.14
2019-05-01T02:16:13.762Z,72.81
2019-05-01T02:17:13.797Z,71.95
2019-05-01T02:18:13.832Z,71.95
2019-05-01T02:19:13.859Z,71.95
2019-05-01T02:20:13.891Z,71.95
2019-05-01T02:21:13.924Z,72.33
2019-05-01T02:22:13.959Z,72.72
2019-05-01T02:23:13.988Z,72.24
2019-05-01T02:24:14.022Z,72.91
2019-05-01T02:25:14.053Z,72.62
2019-05-01T02:26:14.085Z,72.91
2019-05-01T02:27:14.117Z,73.96
2019-05-01T02:28:14.150Z,73.10
2019-05-01T02:29:14.182Z,72.81
2019-05-01T02:30:14.215Z,72.72
2019-05-01T02:31:27.511Z,72.33
2019-05-01T02:32:14.281Z,72.43
2019-05-01T02:33:14.314Z,72.81
2019-05-01T02:34:14.344Z,73.48
2019-05-01T02:35:14.378Z,73.29
2019-05-01T02:36:14.412Z,73.96
2019-05-01T02:37:14.448Z,73.96
2019-05-01T02:38:14.475Z,73.86
2019-05-01T02:39:14.507Z,74.05
2019-05-01T02:40:14.539Z,74.15
2019-05-01T02:41:14.573Z,73.67
2019-05-01T02:42:14.611Z,73.58
2019-05-01T02:43:14.637Z,72.91
2019-05-01T02:44:14.669Z,73.48
2019-05-01T02:45:14.701Z,74.24
2019-05-01T02:46:14.735Z,73.86
2019-05-01T02:47:14.768Z,74.53
2019-05-01T02:48:14.799Z,74.15
2019-05-01T02:49:14.831Z,73.67
2019-05-01T02:50:14.864Z,73.67
2019-05-01T02:51:14.896Z,74.53
2019-05-01T02:52:14.930Z,74.53
2019-05-01T02:53:14.963Z,74.05
2019-05-01T02:54:14.992Z,75.01
2019-05-01T02:55:15.027Z,75.30
2019-05-01T02:56:15.058Z,75.30
2019-05-01T02:57:15.092Z,75.20
2019-05-01T02:58:15.126Z,75.01
2019-05-01T02:59:15.156Z,75.78
2019-05-01T03:00:15.186Z,75.59
2019-05-01T03:01:15.220Z,75.96
2019-05-01T03:02:15.257Z,75.96
2019-05-01T03:03:15.284Z,76.64
2019-05-01T03:04:15.318Z,76.92
2019-05-01T03:05:15.348Z,77.30
2019-05-01T03:06:15.381Z,77.21
2019-05-01T03:07:15.414Z,77.01
2019-05-01T03:08:15.448Z,76.82
2019-05-01T03:09:15.478Z,76.35
2019-05-01T03:10:15.509Z,76.45
2019-05-01T03:11:15.543Z,77.40
2019-05-01T03:12:15.575Z,77.78
2019-05-01T03:13:15.611Z,77.40
2019-05-01T03:14:15.639Z,76.92
2019-05-01T03:15:15.676Z,77.01
2019-05-01T03:16:15.706Z,77.01
2019-05-01T03:17:15.737Z,77.78
2019-05-01T03:18:15.769Z,77.21
2019-05-01T03:19:15.802Z,77.21
2019-05-01T03:20:15.834Z,77.30
2019-05-01T03:21:15.873Z,77.69
2019-05-01T03:22:15.900Z,77.50
2019-05-01T03:23:15.932Z,77.55
2019-05-01T03:24:15.963Z,77.40
2019-05-01T03:25:15.999Z,77.78
2019-05-01T03:26:16.030Z,77.69
2019-05-01T03:27:16.059Z,78.26
2019-05-01T03:28:16.092Z,78.26
2019-05-01T03:29:16.128Z,78.55
2019-05-01T03:30:16.157Z,78.70
2019-05-01T03:31:16.191Z,78.22
2019-05-01T03:32:19.044Z,78.03
2019-05-01T03:33:16.254Z,78.70
2019-05-01T03:34:16.287Z,78.70
2019-05-01T03:35:16.319Z,78.89
2019-05-01T03:36:16.350Z,78.03
2019-05-01T03:37:16.388Z,78.13
2019-05-01T03:38:16.417Z,78.03
2019-05-01T03:39:16.449Z,78.22
2019-05-01T03:40:16.484Z,78.70
2019-05-01T03:41:16.511Z,78.99
2019-05-01T03:42:16.548Z,78.79
2019-05-01T03:43:16.589Z,78.51
2019-05-01T03:44:16.612Z,78.99
2019-05-01T03:45:16.639Z,79.12
2019-05-01T03:46:16.676Z,79.41
2019-05-01T03:47:16.709Z,78.79
2019-05-01T03:48:16.737Z,79.17
2019-05-01T03:49:16.769Z,79.36
2019-05-01T03:50:16.803Z,79.27
2019-05-01T03:51:16.837Z,79.17
2019-05-01T03:52:16.867Z,79.17
2019-05-01T03:53:16.901Z,79.46
2019-05-01T03:54:16.931Z,80.32
2019-05-01T03:55:16.964Z,80.70
2019-05-01T03:56:16.995Z,80.70
2019-05-01T03:57:17.027Z,80.70
2019-05-01T03:58:17.060Z,80.51
2019-05-01T03:59:17.090Z,80.41
2019-05-01T04:00:17.128Z,80.51
2019-05-01T04:01:17.157Z,80.90
2019-05-01T04:02:32.272Z,81.09
2019-05-01T04:03:17.221Z,80.70
2019-05-01T04:04:17.253Z,80.61
2019-05-01T04:05:17.286Z,80.99
2019-05-01T04:06:17.315Z,80.99
2019-05-01T04:07:17.354Z,81.18
2019-05-01T04:08:17.380Z,80.80
2019-05-01T04:09:17.412Z,81.66
2019-05-01T04:10:17.443Z,80.90
2019-05-01T04:11:17.481Z,81.37
2019-05-01T04:12:17.510Z,81.47
2019-05-01T04:13:17.540Z,81.18
2019-05-01T04:14:17.574Z,80.51
2019-05-01T04:15:17.608Z,80.99
2019-05-01T04:16:17.638Z,80.99
2019-05-01T04:17:17.668Z,80.70
2019-05-01T04:18:17.701Z,80.90
2019-05-01T04:19:17.734Z,81.27
2019-05-01T04:20:17.765Z,80.99
2019-05-01T04:21:17.797Z,81.18
2019-05-01T04:22:17.830Z,80.51
2019-05-01T04:23:17.861Z,80.61
2019-05-01T04:24:17.892Z,80.51
2019-05-01T04:25:17.926Z,80.22
2019-05-01T04:26:17.960Z,80.32
2019-05-01T04:27:17.990Z,80.80
2019-05-01T04:28:18.025Z,80.41
2019-05-01T04:29:18.170Z,79.85
2019-05-01T04:30:18.090Z,79.65
2019-05-01T04:31:18.119Z,80.13
2019-05-01T04:32:18.152Z,79.85
2019-05-01T04:33:18.182Z,79.85
2019-05-01T04:34:18.225Z,79.85
2019-05-01T04:35:18.249Z,79.27
2019-05-01T04:36:18.278Z,79.27
2019-05-01T04:37:18.310Z,79.27
2019-05-01T04:38:18.349Z,79.08
2019-05-01T04:39:18.373Z,79.17
2019-05-01T04:40:19.244Z,78.60
2019-05-01T04:41:18.439Z,78.60
2019-05-01T04:42:18.470Z,78.99
2019-05-01T04:43:18.502Z,78.70
2019-05-01T04:44:18.539Z,78.79
2019-05-01T04:45:18.565Z,78.51
2019-05-01T04:46:18.602Z,78.79
2019-05-01T04:47:18.644Z,79.17
2019-05-01T04:48:18.664Z,78.79
2019-05-01T04:49:18.693Z,78.99
2019-05-01T04:50:18.729Z,78.31
2019-05-01T04:51:18.757Z,78.60
2019-05-01T04:52:18.791Z,78.22
2019-05-01T04:53:18.821Z,78.13
2019-05-01T04:54:18.853Z,78.22
2019-05-01T04:55:18.886Z,77.94
2019-05-01T04:56:18.918Z,78.41
2019-05-01T04:57:18.949Z,78.03
2019-05-01T04:58:18.982Z,77.65
2019-05-01T04:59:19.016Z,78.13
2019-05-01T05:00:19.045Z,77.55
2019-05-01T05:01:19.078Z,77.55
2019-05-01T05:02:19.112Z,77.84
2019-05-01T05:03:19.141Z,78.03
2019-05-01T05:04:19.173Z,78.13
2019-05-01T05:05:19.206Z,78.03
2019-05-01T05:06:19.237Z,77.17
2019-05-01T05:07:19.272Z,78.22
2019-05-01T05:08:19.304Z,77.94
2019-05-01T05:09:19.333Z,78.22
2019-05-01T05:10:19.365Z,77.36
2019-05-01T05:11:19.397Z,77.55
2019-05-01T05:12:19.431Z,77.65
2019-05-01T05:13:19.462Z,77.74
2019-05-01T05:14:19.492Z,77.45
2019-05-01T05:15:19.526Z,77.74
2019-05-01T05:16:19.559Z,77.08
2019-05-01T05:17:19.587Z,77.65
2019-05-01T05:18:19.622Z,78.13
2019-05-01T05:19:19.656Z,77.36
2019-05-01T05:20:19.688Z,77.74
2019-05-01T05:21:19.717Z,77.36
2019-05-01T05:22:19.749Z,76.88
2019-05-01T05:23:19.782Z,77.08
2019-05-01T05:24:19.813Z,76.98
2019-05-01T05:25:19.844Z,76.79
2019-05-01T05:26:19.878Z,76.12
2019-05-01T05:27:19.909Z,76.40
2019-05-01T05:28:19.942Z,76.12
2019-05-01T05:29:19.976Z,75.93
2019-05-01T05:30:20.005Z,75.45
2019-05-01T05:31:20.038Z,75.54
2019-05-01T05:32:20.071Z,76.12
2019-05-01T05:33:20.100Z,76.35
2019-05-01T05:34:20.134Z,76.06
2019-05-01T05:35:20.166Z,76.16
2019-05-01T05:36:20.197Z,76.25
2019-05-01T05:37:20.230Z,76.06
2019-05-01T05:38:20.262Z,76.06
2019-05-01T05:39:20.300Z,76.25
2019-05-01T05:40:20.343Z,75.96
2019-05-01T05:41:20.358Z,75.96
2019-05-01T05:42:20.390Z,75.68
2019-05-01T05:43:20.423Z,76.25
2019-05-01T05:44:20.457Z,76.64
2019-05-01T05:45:20.488Z,76.35
2019-05-01T05:46:20.518Z,76.06
2019-05-01T05:47:20.550Z,75.30
2019-05-01T05:48:20.584Z,76.16
2019-05-01T05:49:20.615Z,75.59
2019-05-01T05:50:20.645Z,75.59
2019-05-01T05:51:20.680Z,75.39
2019-05-01T05:52:20.714Z,75.20
2019-05-01T05:53:20.743Z,75.14
2019-05-01T05:54:20.776Z,74.85
2019-05-01T05:55:20.809Z,74.66
2019-05-01T05:56:20.841Z,74.44
2019-05-01T05:57:20.872Z,74.28
2019-05-01T05:58:20.909Z,74.85
2019-05-01T05:59:20.946Z,75.05
2019-05-01T06:00:20.969Z,74.57
2019-05-01T06:01:21.002Z,74.85
2019-05-01T06:02:21.034Z,74.57
2019-05-01T06:03:30.747Z,73.80
2019-05-01T06:04:21.098Z,74.66
2019-05-01T06:05:21.128Z,74.28
2019-05-01T06:06:21.163Z,74.76
2019-05-01T06:07:21.196Z,73.90
2019-05-01T06:08:21.228Z,73.52
2019-05-01T06:09:21.260Z,73.04
2019-05-01T06:10:23.161Z,73.61
2019-05-01T06:11:21.323Z,73.61
2019-05-01T06:12:21.357Z,72.75
2019-05-01T06:13:21.890Z,72.75
2019-05-01T06:14:21.419Z,73.04
2019-05-01T06:15:21.453Z,73.04
2019-05-01T06:16:21.488Z,72.75
2019-05-01T06:17:23.884Z,73.33
2019-05-01T06:18:21.551Z,73.14
2019-05-01T06:19:21.581Z,73.43
2019-05-01T06:20:25.892Z,73.52
2019-05-01T06:21:21.647Z,73.99
2019-05-01T06:22:21.679Z,73.43
2019-05-01T06:23:22.492Z,73.48
2019-05-01T06:24:21.747Z,73.61
2019-05-01T06:25:24.415Z,73.80
2019-05-01T06:26:21.809Z,73.71
2019-05-01T06:27:21.840Z,73.04
2019-05-01T06:28:24.945Z,73.04
2019-05-01T06:29:21.903Z,73.43
2019-05-01T06:30:21.937Z,73.80
2019-05-01T06:31:22.880Z,73.52
2019-05-01T06:32:22.004Z,73.33
2019-05-01T06:33:22.037Z,73.71
2019-05-01T06:34:23.960Z,74.09
2019-05-01T06:35:22.100Z,73.80
2019-05-01T06:36:23.820Z,73.61
2019-05-01T06:37:25.409Z,72.37
2019-05-01T06:38:22.196Z,73.10
2019-05-01T06:39:22.232Z,73.61
2019-05-01T06:40:22.726Z,73.33
2019-05-01T06:41:22.293Z,73.04
2019-05-01T06:42:22.325Z,73.52
2019-05-01T06:43:25.403Z,73.43
2019-05-01T06:44:22.391Z,73.23
2019-05-01T06:45:22.421Z,73.14
2019-05-01T06:46:27.427Z,72.75
2019-05-01T06:47:22.486Z,72.94
2019-05-01T06:48:22.519Z,72.75
2019-05-01T06:49:24.181Z,72.66
2019-05-01T06:50:22.584Z,72.56
2019-05-01T06:51:22.617Z,72.28
2019-05-01T06:52:24.879Z,72.18
2019-05-01T06:53:22.708Z,72.37
2019-05-01T06:54:22.776Z,73.04
2019-05-01T06:55:27.223Z,72.94
2019-05-01T06:56:22.778Z,73.33
2019-05-01T06:57:22.810Z,73.33
2019-05-01T06:58:22.845Z,73.61
2019-05-01T06:59:26.192Z,74.66
2019-05-01T07:00:22.908Z,74.48
2019-05-01T07:01:24.008Z,75.05
2019-05-01T07:02:22.972Z,74.28
2019-05-01T07:03:23.006Z,74.48
2019-05-01T07:04:23.038Z,74.76
2019-05-01T07:05:23.082Z,74.95
2019-05-01T07:06:26.128Z,74.66
2019-05-01T07:07:25.555Z,74.57
2019-05-01T07:08:24.615Z,74.48
2019-05-01T07:09:28.061Z,74.48
2019-05-01T07:10:30.749Z,73.90
2019-05-01T07:11:23.315Z,74.09
2019-05-01T07:12:23.940Z,73.43
2019-05-01T07:13:23.336Z,73.23
2019-05-01T07:14:23.361Z,73.52
2019-05-01T07:15:26.969Z,73.61
2019-05-01T07:16:23.426Z,73.71
2019-05-01T07:17:23.459Z,73.61
2019-05-01T07:18:26.866Z,73.43
2019-05-01T07:19:23.529Z,72.47
2019-05-01T07:20:25.546Z,72.56
2019-05-01T07:21:27.725Z,72.28
2019-05-01T07:22:23.623Z,72.56
2019-05-01T07:23:23.656Z,73.04
2019-05-01T07:24:24.221Z,72.75
2019-05-01T07:25:23.717Z,72.56
2019-05-01T07:26:23.750Z,72.85
2019-05-01T07:27:25.169Z,72.94
2019-05-01T07:28:23.817Z,72.75
2019-05-01T07:29:23.846Z,72.08
2019-05-01T07:30:23.881Z,72.37
2019-05-01T07:31:26.083Z,72.60
2019-05-01T07:32:23.946Z,72.41
2019-05-01T07:33:24.002Z,72.22
2019-05-01T07:34:26.189Z,72.12
2019-05-01T07:35:24.044Z,72.02
2019-05-01T07:36:24.078Z,72.12
2019-05-01T07:37:26.003Z,71.16
2019-05-01T07:38:24.139Z,71.26
2019-05-01T07:39:24.183Z,71.07
2019-05-01T07:40:28.942Z,70.97
2019-05-01T07:41:24.237Z,70.78
2019-05-01T07:42:24.272Z,70.40
2019-05-01T07:43:25.813Z,70.40
2019-05-01T07:44:24.335Z,71.16
2019-05-01T07:45:26.568Z,71.07
2019-05-01T07:46:24.401Z,70.87
2019-05-01T07:47:25.866Z,71.16
2019-05-01T07:48:24.483Z,71.64
2019-05-01T07:49:24.520Z,71.64
2019-05-01T07:50:31.639Z,71.64
2019-05-01T07:51:24.564Z,71.26
2019-05-01T07:52:24.597Z,71.64
2019-05-01T07:53:28.377Z,71.64
2019-05-01T07:54:24.667Z,71.30
2019-05-01T07:55:24.696Z,70.91
2019-05-01T07:56:28.144Z,70.43
2019-05-01T07:57:24.761Z,71.04
2019-05-01T07:58:24.793Z,70.37
2019-05-01T07:59:27.595Z,70.28
2019-05-01T08:00:24.861Z,68.94
2019-05-01T08:01:24.893Z,68.55
2019-05-01T08:02:25.933Z,68.55
2019-05-01T08:03:24.958Z,68.21
2019-05-01T08:04:35.909Z,68.49
2019-05-01T08:05:25.024Z,67.54
2019-05-01T08:06:25.057Z,68.27
2019-05-01T08:07:27.856Z,68.07
2019-05-01T08:08:25.123Z,67.54
2019-05-01T08:09:25.157Z,67.72
2019-05-01T08:10:26.566Z,67.05
2019-05-01T08:11:25.223Z,66.77
2019-05-01T08:12:25.865Z,67.05
2019-05-01T08:13:25.288Z,66.77
2019-05-01T08:14:25.321Z,66.58
2019-05-01T08:15:27.607Z,66.19
2019-05-01T08:16:25.394Z,66.09
2019-05-01T08:17:25.422Z,65.71
2019-05-01T08:18:27.995Z,66.29
2019-05-01T08:19:25.489Z,65.68
2019-05-01T08:20:25.522Z,65.78
2019-05-01T08:21:26.009Z,66.45
2019-05-01T08:22:25.625Z,66.93
2019-05-01T08:23:25.622Z,66.93
2019-05-01T08:24:25.656Z,67.41
2019-05-01T08:25:28.647Z,67.69
2019-05-01T08:26:25.722Z,67.50
2019-05-01T08:27:25.755Z,67.69
2019-05-01T08:28:27.728Z,68.17
2019-05-01T08:29:25.820Z,68.46
2019-05-01T08:30:25.856Z,67.69
2019-05-01T08:31:27.754Z,67.11
2019-05-01T08:32:25.921Z,66.93
2019-05-01T08:33:25.956Z,66.64
2019-05-01T08:34:26.592Z,67.11
2019-05-01T08:35:26.176Z,67.82
2019-05-01T08:36:26.054Z,66.93
2019-05-01T08:37:27.179Z,66.00
2019-05-01T08:38:29.717Z,66.29
2019-05-01T08:39:26.157Z,65.81
2019-05-01T08:40:26.187Z,65.71
2019-05-01T08:41:27.142Z,65.42
2019-05-01T08:42:26.256Z,65.33
2019-05-01T08:43:26.288Z,65.75
2019-05-01T08:44:29.569Z,65.46
2019-05-01T08:45:26.353Z,64.69
2019-05-01T08:46:26.388Z,64.40
2019-05-01T08:47:27.778Z,63.73
2019-05-01T08:48:26.456Z,63.92
2019-05-01T08:49:26.488Z,63.76
2019-05-01T08:50:26.519Z,63.19
2019-05-01T08:51:30.035Z,63.38
2019-05-01T08:52:26.589Z,63.86
2019-05-01T08:53:26.644Z,63.29
2019-05-01T08:54:29.029Z,63.19
2019-05-01T08:55:26.690Z,63.09
2019-05-01T08:56:26.724Z,62.81
2019-05-01T08:57:29.014Z,61.75
2019-05-01T08:58:26.790Z,61.66
2019-05-01T08:59:26.826Z,61.75
2019-05-01T09:00:30.956Z,61.40
2019-05-01T09:01:26.891Z,61.18
2019-05-01T09:02:26.925Z,60.41
2019-05-01T09:03:26.959Z,60.50
2019-05-01T09:04:30.317Z,60.31
2019-05-01T09:05:30.464Z,59.96
2019-05-01T09:06:34.584Z,59.55
2019-05-01T09:07:27.135Z,59.96
2019-05-01T09:08:31.908Z,60.05
2019-05-01T09:09:27.161Z,60.05
2019-05-01T09:10:27.195Z,60.15
2019-05-01T09:11:27.230Z,60.35
2019-05-01T09:12:27.265Z,59.38
2019-05-01T09:13:27.297Z,59.22
2019-05-01T09:14:29.873Z,59.03
2019-05-01T09:15:27.366Z,58.71
2019-05-01T09:16:28.460Z,58.14
2019-05-01T09:17:27.433Z,58.64
2019-05-01T09:18:27.474Z,59.32
2019-05-01T09:19:27.503Z,59.22
2019-05-01T09:20:27.537Z,59.12
2019-05-01T09:21:27.571Z,59.22
2019-05-01T09:22:27.606Z,59.03
2019-05-01T09:23:27.637Z,58.55
2019-05-01T09:24:28.311Z,58.26
2019-05-01T09:25:30.842Z,57.97
2019-05-01T09:26:27.741Z,57.11
2019-05-01T09:27:29.518Z,57.30
2019-05-01T09:28:27.809Z,57.30
2019-05-01T09:29:27.843Z,57.40
2019-05-01T09:30:28.790Z,57.01
2019-05-01T09:31:27.912Z,56.82
2019-05-01T09:32:27.998Z,56.63
2019-05-01T09:33:30.812Z,56.82
2019-05-01T09:34:28.015Z,57.11
2019-05-01T09:35:28.049Z,57.11
2019-05-01T09:36:28.084Z,57.21
2019-05-01T09:37:28.119Z,57.33
2019-05-01T09:38:28.153Z,56.46
2019-05-01T09:39:28.187Z,56.66
2019-05-01T09:40:28.222Z,55.99
2019-05-01T09:41:38.087Z,55.89
2019-05-01T09:42:28.290Z,55.99
2019-05-01T09:43:31.003Z,55.69
2019-05-01T09:44:28.361Z,55.79
2019-05-01T09:45:28.393Z,55.34
2019-05-01T09:46:28.428Z,54.77
2019-05-01T09:47:28.463Z,54.77
2019-05-01T09:48:28.500Z,55.73
2019-05-01T09:49:28.532Z,55.53
2019-05-01T09:50:30.421Z,54.86
2019-05-01T09:51:28.602Z,54.96
2019-05-01T09:52:28.636Z,55.15
2019-05-01T09:53:29.760Z,54.89
2019-05-01T09:54:28.705Z,54.99
2019-05-01T09:55:28.741Z,54.89
2019-05-01T09:56:28.774Z,54.79
2019-05-01T09:57:28.809Z,53.74
2019-05-01T09:58:28.845Z,53.38
2019-05-01T09:59:28.881Z,53.28
2019-05-01T10:00:28.915Z,52.99
2019-05-01T10:01:31.893Z,53.09
2019-05-01T10:02:28.983Z,52.99
2019-05-01T10:03:29.019Z,53.31
2019-05-01T10:04:30.230Z,52.83
2019-05-01T10:05:29.395Z,52.34
2019-05-01T10:06:29.126Z,52.63
2019-05-01T10:07:30.760Z,52.73
2019-05-01T10:08:29.197Z,52.15
2019-05-01T10:09:29.230Z,51.41
2019-05-01T10:10:30.504Z,51.50
2019-05-01T10:11:29.299Z,51.31
2019-05-01T10:12:29.335Z,51.41
2019-05-01T10:13:29.372Z,50.85
2019-05-01T10:14:31.605Z,50.95
2019-05-01T10:15:29.443Z,50.09
2019-05-01T10:16:29.478Z,50.09
2019-05-01T10:17:29.512Z,49.79
2019-05-01T10:18:29.550Z,49.43
2019-05-01T10:19:29.586Z,49.05
2019-05-01T10:20:29.621Z,48.08
2019-05-01T10:21:29.657Z,47.80
2019-05-01T10:22:32.900Z,48.28
2019-05-01T10:23:29.728Z,48.18
2019-05-01T10:24:32.011Z,47.99
2019-05-01T10:25:29.799Z,46.73
2019-05-01T10:26:29.834Z,46.64
2019-05-01T10:27:30.899Z,46.83
2019-05-01T10:28:29.908Z,46.81
2019-05-01T10:29:29.941Z,47.49
2019-05-01T10:30:31.747Z,48.44
2019-05-01T10:31:30.015Z,48.25
2019-05-01T10:32:30.061Z,48.16
2019-05-01T10:33:32.645Z,48.06
2019-05-01T10:34:30.122Z,48.06
2019-05-01T10:35:41.793Z,48.44
2019-05-01T10:36:30.195Z,48.74
2019-05-01T10:37:33.759Z,48.28
2019-05-01T10:38:30.274Z,48.08
2019-05-01T10:39:30.342Z,47.89
2019-05-01T10:40:32.341Z,47.51
2019-05-01T10:41:30.375Z,47.89
2019-05-01T10:42:30.410Z,48.28
2019-05-01T10:43:30.451Z,48.21
2019-05-01T10:44:30.483Z,47.92
2019-05-01T10:45:30.519Z,47.14
2019-05-01T10:46:30.565Z,46.76
2019-05-01T10:47:30.593Z,46.56
2019-05-01T10:48:30.628Z,46.40
2019-05-01T10:49:30.667Z,46.59
2019-05-01T10:50:30.701Z,45.82
2019-05-01T10:51:30.741Z,45.53
2019-05-01T10:52:30.775Z,45.24
2019-05-01T10:53:30.812Z,45.72
2019-05-01T10:54:30.859Z,45.34
2019-05-01T10:55:30.885Z,45.24
2019-05-01T10:56:30.939Z,45.34
2019-05-01T10:57:35.264Z,46.20
2019-05-01T10:58:31.028Z,45.82
2019-05-01T10:59:31.030Z,44.45
2019-05-01T11:00:31.065Z,44.83
2019-05-01T11:01:31.100Z,45.31
2019-05-01T11:02:31.141Z,45.70
2019-05-01T11:03:31.176Z,45.99
2019-05-01T11:04:31.211Z,45.79
2019-05-01T11:05:31.247Z,45.43
2019-05-01T11:06:31.283Z,45.04
2019-05-01T11:07:31.320Z,44.18
2019-05-01T11:08:31.358Z,43.21
2019-05-01T11:09:31.393Z,43.89
2019-05-01T11:10:31.430Z,44.20
2019-05-01T11:11:31.467Z,44.20
2019-05-01T11:12:31.503Z,44.10
2019-05-01T11:13:31.540Z,43.33
2019-05-01T11:14:31.576Z,42.75
2019-05-01T11:15:31.613Z,42.66
2019-05-01T11:16:31.651Z,43.04
2019-05-01T11:17:31.685Z,43.24
2019-05-01T11:18:31.724Z,43.41
2019-05-01T11:19:31.762Z,43.50
2019-05-01T11:20:31.799Z,43.98
2019-05-01T11:21:31.831Z,45.24
2019-05-01T11:22:31.869Z,45.34
2019-05-01T11:23:31.905Z,45.84
2019-05-01T11:24:31.943Z,45.45
2019-05-01T11:25:31.979Z,45.36
2019-05-01T11:26:32.018Z,44.01
2019-05-01T11:27:32.055Z,44.22
2019-05-01T11:28:32.089Z,43.93
2019-05-01T11:29:32.143Z,43.45
2019-05-01T11:30:32.166Z,43.47
2019-05-01T11:31:32.209Z,42.99
2019-05-01T11:32:32.237Z,42.31
2019-05-01T11:33:32.274Z,40.86
2019-05-01T11:34:32.312Z,39.41
2019-05-01T11:35:32.391Z,40.38
2019-05-01T11:36:32.478Z,40.47
2019-05-01T11:37:32.512Z,40.67
2019-05-01T11:38:32.461Z,40.69
2019-05-01T11:39:36.007Z,40.47
2019-05-01T11:40:32.534Z,40.50
2019-05-01T11:41:32.569Z,40.98
2019-05-01T11:42:32.607Z,40.59
2019-05-01T11:43:32.647Z,39.92
2019-05-01T11:44:32.681Z,39.62
2019-05-01T11:45:32.719Z,39.72
2019-05-01T11:46:32.758Z,39.55
2019-05-01T11:47:32.793Z,39.06
2019-05-01T11:48:32.832Z,39.64
2019-05-01T11:49:32.868Z,38.97
2019-05-01T11:50:32.905Z,38.97
2019-05-01T11:51:32.943Z,38.58
2019-05-01T11:52:32.981Z,38.58
2019-05-01T11:53:33.017Z,38.70
2019-05-01T11:54:33.055Z,39.37
2019-05-01T11:55:33.094Z,38.70
2019-05-01T11:56:33.131Z,38.60
2019-05-01T11:57:33.167Z,38.31
2019-05-01T11:58:33.207Z,38.50
2019-05-01T11:59:33.243Z,38.99
2019-05-01T12:00:33.284Z,39.18
2019-05-01T12:01:33.319Z,39.09
2019-05-01T12:02:33.354Z,39.09
2019-05-01T12:03:33.394Z,38.41
2019-05-01T12:04:33.432Z,37.63
2019-05-01T12:05:33.467Z,38.12
2019-05-01T12:06:33.506Z,38.00
2019-05-01T12:07:33.543Z,38.68
2019-05-01T12:08:33.581Z,39.26
2019-05-01T12:09:33.626Z,39.14
2019-05-01T12:10:33.657Z,39.24
2019-05-01T12:11:33.693Z,39.14
2019-05-01T12:12:33.731Z,39.43
2019-05-01T12:13:43.549Z,39.62
2019-05-01T12:14:33.809Z,39.90
2019-05-01T12:15:33.848Z,40.57
2019-05-01T12:16:33.882Z,40.38
2019-05-01T12:17:33.919Z,40.77
2019-05-01T12:18:33.958Z,41.25
2019-05-01T12:19:33.998Z,41.25
2019-05-01T12:20:34.033Z,41.15
2019-05-01T12:21:34.069Z,40.96
2019-05-01T12:22:34.107Z,41.44
2019-05-01T12:23:34.145Z,41.35
2019-05-01T12:24:34.189Z,41.08
2019-05-01T12:25:34.251Z,41.46
2019-05-01T12:26:34.263Z,41.56
2019-05-01T12:27:34.298Z,41.29
2019-05-01T12:28:34.333Z,40.78
2019-05-01T12:29:34.384Z,41.00
2019-05-01T12:30:34.411Z,41.09
2019-05-01T12:31:34.447Z,40.81
2019-05-01T12:32:34.483Z,40.71
2019-05-01T12:33:34.520Z,40.53
2019-05-01T12:34:34.562Z,40.53
2019-05-01T12:35:34.595Z,40.25
2019-05-01T12:36:36.446Z,39.57
2019-05-01T12:37:34.672Z,39.20
2019-05-01T12:38:34.728Z,39.69
2019-05-01T12:39:34.748Z,39.20
2019-05-01T12:40:34.787Z,37.92
2019-05-01T12:41:34.827Z,38.53
2019-05-01T12:42:34.904Z,39.01
2019-05-01T12:43:34.897Z,38.50
2019-05-01T12:44:34.939Z,38.50
2019-05-01T12:45:34.973Z,38.02
2019-05-01T12:46:35.013Z,38.50
2019-05-01T12:47:37.915Z,38.31
2019-05-01T12:48:35.087Z,38.21
2019-05-01T12:49:35.125Z,38.48
2019-05-01T12:50:35.163Z,38.10
2019-05-01T12:51:35.200Z,38.21
2019-05-01T12:52:35.237Z,38.10